MMHO METAR and TAF | Updated Today

MMHO METAR

General Ignacio P. Garcia International Airport

Observation time: 69 min. ago

MMHO 070840Z 08003KT 10SM SKC 15/05 A2999 RMK SLP156 57007 901 HZY

Need help? Read our tutorial on how to read METARs or read the parsed version below.

General Ignacio P. Garcia International Airport (MMHO) METAR

  • Weather conditions on Tue, 07 Dec 2021 08:40:00 +0000 (69 min. ago):
  • Present conditions: Dry
  • Clouds: No significant changes expected
  • Visibility: 16093 meters
  • Wind: 80 degrees at 3 knots
  • Temperature: 15 celsius
  • Dew point: 5 celsius
  • Pressure: 29.99 inHg
  • Remarks: SLP156 57007 901 HZY


Useful to know...

MMHO TAF

General Ignacio P. Garcia International Airport

TAF MMHO 070451Z 0706/0806 00000KT P6SM SKC FM071800 23010KT P6SM SKC FM080300 24005KT P6SM SKC
Observation time: 4:58 hr. ago
Need help? Read our tutorial on how to read TAFs or read the parsed version below.

Parsed version of TAF for General Ignacio P. Garcia International Airport (MMHO)

  • From 07 December at 06:00 UTC, to day 08 of the month at 06:00 UTC
  • Clouds: No significant changes expected
  • From day 7 of the month at 18:00 UTC
  • Clouds: No significant changes expected
  • Wind: 230 degrees at 10
  • From day 8 of the month at 03:00 UTC
  • Clouds: No significant changes expected
  • Wind: 240 degrees at 5

Airports near MMHO

No airports found within 100nm radius.